createdAt,value
2017-12-23T00:02:06.692Z,6.30
2017-12-23T00:04:34.921Z,7.35
2017-12-23T00:07:02.411Z,6.78
2017-12-23T00:09:29.865Z,7.25
2017-12-23T00:11:57.453Z,6.40
2017-12-23T00:14:24.973Z,8.60
2017-12-23T00:16:52.424Z,6.12
2017-12-23T00:19:20.747Z,7.68
2017-12-23T00:21:48.253Z,6.32
2017-12-23T00:24:15.724Z,7.85
2017-12-23T00:26:43.948Z,7.72
2017-12-23T00:29:11.417Z,8.13
2017-12-23T00:31:38.870Z,7.28
2017-12-23T00:34:06.357Z,7.32
2017-12-23T00:36:34.554Z,7.22
2017-12-23T00:39:02.785Z,7.95
2017-12-23T00:41:30.301Z,7.53
2017-12-23T00:43:57.785Z,8.07
2017-12-23T00:46:25.288Z,6.87
2017-12-23T00:48:54.282Z,7.55
2017-12-23T00:51:21.831Z,7.70
2017-12-23T00:53:49.401Z,8.77
2017-12-23T00:56:16.999Z,9.20
2017-12-23T00:58:44.455Z,8.02
2017-12-23T01:01:11.913Z,8.05
2017-12-23T01:03:39.372Z,8.82
2017-12-23T01:06:06.841Z,9.38
2017-12-23T01:08:34.351Z,8.50
2017-12-23T01:11:01.961Z,7.87
2017-12-23T01:13:29.413Z,7.12
2017-12-23T01:15:56.978Z,8.02
2017-12-23T01:18:24.482Z,8.02
2017-12-23T01:20:52.042Z,7.32
2017-12-23T01:23:19.597Z,6.10
2017-12-23T01:25:47.057Z,7.53
2017-12-23T01:28:14.617Z,7.55
2017-12-23T01:30:42.078Z,6.12
2017-12-23T01:33:09.557Z,7.95
2017-12-23T01:35:37.786Z,6.90
2017-12-23T01:38:05.252Z,7.20
2017-12-23T01:40:32.741Z,6.47
2017-12-23T01:43:00.201Z,6.30
2017-12-23T01:45:28.427Z,6.12
2017-12-23T01:47:55.897Z,5.90
2017-12-23T01:50:23.352Z,5.70
2017-12-23T01:52:50.830Z,6.32
2017-12-23T01:55:18.293Z,7.03
2017-12-23T01:57:45.757Z,7.20
2017-12-23T02:00:13.302Z,6.43
2017-12-23T02:02:40.865Z,6.40
2017-12-23T02:05:08.316Z,6.12
2017-12-23T02:07:37.297Z,6.45
2017-12-23T02:10:04.753Z,6.47
2017-12-23T02:12:32.262Z,5.85
2017-12-23T02:14:59.722Z,7.57
2017-12-23T02:17:27.190Z,6.72
2017-12-23T02:19:54.657Z,8.07
2017-12-23T02:22:22.118Z,7.20
2017-12-23T02:24:49.670Z,7.62
2017-12-23T02:27:17.177Z,7.62
2017-12-23T02:29:44.641Z,7.43
2017-12-23T02:32:12.093Z,8.93
2017-12-23T02:34:39.649Z,8.52
2017-12-23T02:37:07.104Z,9.05
2017-12-23T02:39:34.571Z,10.23
2017-12-23T02:42:02.891Z,9.57
2017-12-23T02:44:30.354Z,9.65
2017-12-23T02:46:57.824Z,9.65
2017-12-23T02:49:25.292Z,10.63
2017-12-23T02:51:52.759Z,9.88
2017-12-23T02:54:20.317Z,9.07
2017-12-23T02:56:47.791Z,9.55
2017-12-23T02:59:16.053Z,10.23
2017-12-23T03:01:44.678Z,9.38
2017-12-23T03:04:12.142Z,10.75
2017-12-23T03:06:39.653Z,9.48
2017-12-23T03:09:07.221Z,9.30
2017-12-23T03:11:34.686Z,10.00
2017-12-23T03:14:02.922Z,9.98
2017-12-23T03:16:30.474Z,9.80
2017-12-23T03:18:57.959Z,10.70
2017-12-23T03:21:25.514Z,10.30
2017-12-23T03:23:52.969Z,8.27
2017-12-23T03:26:20.453Z,8.82
2017-12-23T03:28:48.702Z,9.98
2017-12-23T03:31:16.175Z,9.57
2017-12-23T03:33:44.434Z,8.48
2017-12-23T03:36:11.989Z,9.48
2017-12-23T03:38:39.458Z,9.70
2017-12-23T03:41:06.912Z,9.65
2017-12-23T03:43:34.385Z,9.25
2017-12-23T03:46:02.615Z,10.32
2017-12-23T03:48:30.101Z,7.60
2017-12-23T03:50:57.675Z,8.70
2017-12-23T03:53:25.938Z,8.98
2017-12-23T03:55:53.490Z,9.73
2017-12-23T03:58:20.953Z,9.23
2017-12-23T04:00:48.419Z,10.07
2017-12-23T04:03:16.646Z,9.52
2017-12-23T04:05:44.105Z,8.50
2017-12-23T04:08:11.564Z,9.05
2017-12-23T04:10:39.042Z,10.52
2017-12-23T04:13:06.593Z,10.20
2017-12-23T04:15:34.056Z,8.32
2017-12-23T04:18:01.517Z,10.63
2017-12-23T04:20:28.988Z,10.52
2017-12-23T04:22:57.221Z,11.20
2017-12-23T04:25:24.689Z,10.52
2017-12-23T04:27:52.157Z,11.65
2017-12-23T04:30:19.767Z,10.73
2017-12-23T04:32:47.225Z,10.35
2017-12-23T04:35:14.733Z,9.43
2017-12-23T04:37:43.057Z,9.25
2017-12-23T04:40:10.517Z,9.75
2017-12-23T04:42:37.982Z,10.32
2017-12-23T04:45:05.445Z,8.95
2017-12-23T04:47:32.897Z,9.75
2017-12-23T04:50:00.374Z,10.50
2017-12-23T04:52:27.838Z,9.32
2017-12-23T04:54:55.301Z,9.80
2017-12-23T04:57:22.769Z,8.35
2017-12-23T04:59:50.990Z,9.80
2017-12-23T05:02:18.481Z,8.13
2017-12-23T05:04:45.936Z,8.88
2017-12-23T05:07:13.474Z,8.38
2017-12-23T05:09:41.052Z,8.85
2017-12-23T05:12:08.529Z,9.18
2017-12-23T05:14:36.838Z,7.37
2017-12-23T05:17:04.346Z,8.63
2017-12-23T05:19:31.901Z,8.32
2017-12-23T05:21:59.470Z,8.77
2017-12-23T05:24:27.025Z,8.10
2017-12-23T05:26:54.506Z,10.13
2017-12-23T05:29:22.735Z,9.38
2017-12-23T05:31:50.185Z,9.88
2017-12-23T05:34:17.659Z,10.63
2017-12-23T05:36:45.122Z,10.65
2017-12-23T05:39:12.581Z,9.75
2017-12-23T05:41:40.042Z,10.48
2017-12-23T05:44:08.309Z,9.25
2017-12-23T05:46:35.777Z,9.52
2017-12-23T05:49:03.325Z,10.00
2017-12-23T05:51:30.935Z,10.60
2017-12-23T05:53:58.401Z,11.32
2017-12-23T05:56:25.906Z,12.63
2017-12-23T05:58:54.143Z,9.75
2017-12-23T06:01:21.631Z,11.00
2017-12-23T06:03:49.109Z,12.30
2017-12-23T06:06:17.363Z,12.30
2017-12-23T06:08:44.912Z,11.27
2017-12-23T06:11:13.155Z,14.30
2017-12-23T06:13:40.706Z,13.38
2017-12-23T06:16:08.178Z,14.13
2017-12-23T06:18:35.642Z,14.75
2017-12-23T06:21:03.110Z,14.07
2017-12-23T06:23:30.732Z,12.10
2017-12-23T06:25:58.197Z,13.93
2017-12-23T06:28:25.702Z,12.25
2017-12-23T06:30:53.178Z,14.48
2017-12-23T06:33:21.413Z,14.27
2017-12-23T06:35:48.888Z,14.05
2017-12-23T06:38:16.350Z,11.65
2017-12-23T06:40:43.899Z,13.00
2017-12-23T06:43:11.353Z,11.90
2017-12-23T06:45:38.814Z,15.65
2017-12-23T06:48:06.282Z,13.90
2017-12-23T06:50:33.881Z,14.85
2017-12-23T06:53:01.342Z,15.07
2017-12-23T06:55:28.808Z,14.85
2017-12-23T06:57:56.276Z,14.38
2017-12-23T07:00:23.810Z,13.82
2017-12-23T07:02:51.317Z,15.45
2017-12-23T07:05:18.776Z,16.25
2017-12-23T07:07:46.243Z,15.98
2017-12-23T07:10:14.505Z,14.87
2017-12-23T07:12:41.981Z,15.27
2017-12-23T07:15:10.213Z,14.98
2017-12-23T07:17:37.716Z,15.25
2017-12-23T07:20:05.962Z,14.65
2017-12-23T07:22:33.422Z,12.95
2017-12-23T07:25:00.888Z,14.20
2017-12-23T07:27:28.348Z,15.07
2017-12-23T07:29:55.833Z,14.18
2017-12-23T07:32:23.317Z,13.62
2017-12-23T07:34:50.870Z,12.57
2017-12-23T07:37:18.368Z,12.45
2017-12-23T07:39:45.874Z,12.85
2017-12-23T07:42:13.385Z,15.02
2017-12-23T07:44:40.852Z,14.75
2017-12-23T07:47:08.406Z,14.38
2017-12-23T07:49:35.965Z,14.85
2017-12-23T07:52:04.214Z,12.98
2017-12-23T07:54:31.674Z,13.07
2017-12-23T07:56:59.137Z,12.68
2017-12-23T07:59:26.618Z,13.15
2017-12-23T08:01:54.168Z,12.37
2017-12-23T08:04:22.406Z,12.48
2017-12-23T08:06:49.909Z,13.40
2017-12-23T08:09:18.138Z,12.63
2017-12-23T08:11:45.606Z,11.98
2017-12-23T08:14:13.088Z,11.73
2017-12-23T08:16:40.647Z,10.98
2017-12-23T08:19:08.108Z,11.20
2017-12-23T08:21:35.573Z,10.98
2017-12-23T08:24:03.061Z,11.40
2017-12-23T08:26:30.533Z,11.82
2017-12-23T08:28:57.998Z,10.00
2017-12-23T08:31:25.484Z,10.50
2017-12-23T08:33:52.942Z,11.48
2017-12-23T08:36:20.454Z,10.75
2017-12-23T08:38:47.918Z,11.75
2017-12-23T08:41:15.436Z,11.23
2017-12-23T08:43:43.693Z,10.43
2017-12-23T08:46:11.245Z,11.32
2017-12-23T08:48:38.814Z,11.57
2017-12-23T08:51:06.371Z,10.27
2017-12-23T08:53:34.647Z,10.93
2017-12-23T08:56:02.202Z,12.32
2017-12-23T08:58:29.673Z,12.18
2017-12-23T09:00:57.352Z,12.88
2017-12-23T09:03:25.586Z,9.57
2017-12-23T09:05:53.054Z,11.75
2017-12-23T09:08:20.622Z,11.52
2017-12-23T09:10:48.125Z,12.32
2017-12-23T09:13:15.687Z,9.50
2017-12-23T09:15:43.143Z,11.32
2017-12-23T09:18:10.617Z,10.95
2017-12-23T09:20:38.107Z,12.05
2017-12-23T09:23:05.569Z,11.32
2017-12-23T09:25:33.130Z,11.88
2017-12-23T09:28:01.353Z,11.93
2017-12-23T09:30:28.854Z,11.63
2017-12-23T09:32:56.402Z,10.80
2017-12-23T09:35:23.967Z,11.43
2017-12-23T09:37:51.440Z,11.05
2017-12-23T09:40:19.694Z,11.43
2017-12-23T09:42:47.157Z,15.35
2017-12-23T09:45:14.629Z,12.60
2017-12-23T09:47:42.889Z,11.65
2017-12-23T09:50:10.441Z,11.63
2017-12-23T09:52:38.042Z,10.70
2017-12-23T09:55:06.266Z,12.18
2017-12-23T09:57:33.896Z,10.27
2017-12-23T10:00:01.359Z,11.10
2017-12-23T10:02:28.828Z,9.80
2017-12-23T10:04:56.287Z,9.15
2017-12-23T10:07:23.761Z,10.32
2017-12-23T10:09:51.325Z,9.20
2017-12-23T10:12:18.814Z,9.35
2017-12-23T10:14:47.061Z,10.15
2017-12-23T10:17:14.540Z,9.15
2017-12-23T10:19:42.752Z,8.30
2017-12-23T10:22:10.226Z,7.65
2017-12-23T10:24:37.685Z,7.15
2017-12-23T10:27:05.155Z,7.28
2017-12-23T10:29:32.622Z,7.95
2017-12-23T10:32:00.174Z,6.80
2017-12-23T10:34:27.742Z,6.95
2017-12-23T10:36:55.206Z,7.00
2017-12-23T10:39:22.761Z,6.37
2017-12-23T10:41:50.307Z,6.62
2017-12-23T10:44:18.589Z,6.10
2017-12-23T10:46:46.200Z,6.00
2017-12-23T10:49:13.760Z,6.15
2017-12-23T10:51:41.216Z,6.10
2017-12-23T10:54:08.677Z,5.30
2017-12-23T10:56:36.141Z,5.78
2017-12-23T10:59:03.634Z,5.35
2017-12-23T11:01:31.101Z,4.07
2017-12-23T11:03:59.338Z,4.30
2017-12-23T11:06:26.804Z,4.20
2017-12-23T11:08:54.277Z,3.90
2017-12-23T11:11:21.750Z,4.65
2017-12-23T11:13:49.990Z,4.35
2017-12-23T11:16:17.465Z,4.82
2017-12-23T11:18:44.917Z,4.37
2017-12-23T11:21:12.398Z,4.07
2017-12-23T11:23:40.618Z,2.87
2017-12-23T11:26:08.076Z,3.12
2017-12-23T11:28:35.565Z,4.30
2017-12-23T11:31:03.057Z,2.87
2017-12-23T11:33:31.274Z,3.40
2017-12-23T11:35:58.749Z,2.85
2017-12-23T11:38:26.198Z,2.60
2017-12-23T11:40:53.761Z,3.45
2017-12-23T11:43:21.224Z,2.50
2017-12-23T11:45:48.697Z,3.20
2017-12-23T11:48:16.158Z,2.15
2017-12-23T11:50:44.380Z,2.62
2017-12-23T11:53:11.870Z,2.83
2017-12-23T11:55:39.329Z,2.40
2017-12-23T11:58:08.317Z,2.90
2017-12-23T12:00:35.774Z,2.35
2017-12-23T12:03:03.238Z,1.50
2017-12-23T12:05:30.847Z,2.45
2017-12-23T12:07:58.358Z,2.05
2017-12-23T12:10:25.813Z,2.10
2017-12-23T12:12:53.371Z,2.15
2017-12-23T12:15:20.922Z,2.60
2017-12-23T12:17:48.379Z,2.87
2017-12-23T12:20:15.835Z,2.40
2017-12-23T12:22:43.395Z,2.53
2017-12-23T12:25:10.962Z,3.00
2017-12-23T12:27:38.425Z,3.08
2017-12-23T12:30:05.977Z,1.75
2017-12-23T12:32:33.437Z,2.85
2017-12-23T12:35:01.012Z,2.20
2017-12-23T12:37:29.241Z,3.10
2017-12-23T12:39:56.701Z,2.28
2017-12-23T12:42:24.173Z,2.90
2017-12-23T12:44:51.641Z,3.05
2017-12-23T12:47:19.106Z,2.78
2017-12-23T12:49:47.325Z,1.92
2017-12-23T12:52:14.782Z,3.00
2017-12-23T12:54:42.257Z,2.62
2017-12-23T12:57:09.715Z,2.17
2017-12-23T12:59:37.200Z,3.20
2017-12-23T13:02:04.662Z,2.80
2017-12-23T13:04:32.891Z,2.70
2017-12-23T13:07:00.356Z,2.85
2017-12-23T13:09:27.839Z,3.05
2017-12-23T13:11:55.398Z,3.75
2017-12-23T13:14:22.860Z,3.53
2017-12-23T13:16:50.407Z,3.20
2017-12-23T13:19:17.910Z,2.42
2017-12-23T13:21:45.368Z,2.37
2017-12-23T13:24:12.882Z,2.78
2017-12-23T13:26:40.354Z,3.03
2017-12-23T13:29:08.610Z,3.03
2017-12-23T13:31:36.164Z,3.03
2017-12-23T13:34:03.625Z,2.83
2017-12-23T13:36:32.617Z,3.28
2017-12-23T13:39:00.172Z,2.75
2017-12-23T13:41:27.793Z,2.75
2017-12-23T13:43:55.295Z,2.70
2017-12-23T13:46:22.911Z,2.60
2017-12-23T13:48:50.416Z,2.80
2017-12-23T13:51:17.993Z,2.72
2017-12-23T13:53:46.229Z,3.15
2017-12-23T13:56:13.691Z,3.35
2017-12-23T13:58:41.217Z,4.00
2017-12-23T14:01:08.735Z,3.92
2017-12-23T14:03:36.192Z,3.42
2017-12-23T14:06:03.672Z,3.37
2017-12-23T14:08:31.150Z,4.45
2017-12-23T14:10:58.609Z,3.55
2017-12-23T14:13:26.110Z,4.47
2017-12-23T14:15:53.566Z,3.75
2017-12-23T14:18:21.022Z,4.03
2017-12-23T14:20:48.490Z,4.68
2017-12-23T14:23:16.751Z,5.15
2017-12-23T14:25:44.209Z,5.12
2017-12-23T14:28:11.757Z,4.85
2017-12-23T14:30:39.221Z,6.00
2017-12-23T14:33:06.690Z,5.10
2017-12-23T14:35:34.931Z,5.60
2017-12-23T14:38:02.385Z,5.50
2017-12-23T14:40:29.854Z,6.40
2017-12-23T14:42:57.321Z,6.70
2017-12-23T14:45:24.806Z,6.12
2017-12-23T14:47:53.048Z,6.22
2017-12-23T14:50:20.519Z,5.82
2017-12-23T14:52:47.981Z,7.55
2017-12-23T14:55:16.244Z,7.15
2017-12-23T14:57:43.713Z,8.40
2017-12-23T15:00:11.262Z,8.35
2017-12-23T15:02:38.733Z,7.30
2017-12-23T15:05:06.991Z,8.82
2017-12-23T15:07:35.985Z,8.50
2017-12-23T15:10:04.986Z,8.23
2017-12-23T15:12:32.538Z,8.80
2017-12-23T15:15:00.095Z,8.55
2017-12-23T15:17:28.335Z,8.60
2017-12-23T15:19:55.824Z,9.25
2017-12-23T15:22:23.300Z,10.25
2017-12-23T15:24:51.572Z,9.60
2017-12-23T15:27:19.817Z,10.85
2017-12-23T15:29:47.290Z,10.20
2017-12-23T15:32:14.753Z,12.13
2017-12-23T15:34:42.226Z,11.27
2017-12-23T15:37:10.462Z,12.23
2017-12-23T15:39:37.944Z,13.48
2017-12-23T15:42:05.412Z,14.90
2017-12-23T15:44:33.649Z,14.80
2017-12-23T15:47:01.141Z,14.48
2017-12-23T15:49:29.766Z,14.68
2017-12-23T15:51:57.272Z,14.23
2017-12-23T15:54:24.745Z,14.15
2017-12-23T15:56:53.007Z,16.08
2017-12-23T15:59:20.489Z,15.70
2017-12-23T16:01:48.733Z,14.70
2017-12-23T16:04:16.243Z,16.45
2017-12-23T16:06:43.749Z,17.00
2017-12-23T16:09:11.304Z,16.08
2017-12-23T16:11:38.778Z,15.95
2017-12-23T16:14:07.091Z,16.55
2017-12-23T16:16:34.595Z,16.83
2017-12-23T16:19:02.061Z,16.83
2017-12-23T16:21:29.525Z,15.85
2017-12-23T16:23:58.658Z,16.50
2017-12-23T16:26:26.120Z,17.95
2017-12-23T16:28:53.595Z,16.17
2017-12-23T16:31:21.077Z,18.48
2017-12-23T16:33:48.596Z,18.65
2017-12-23T16:36:16.090Z,19.73
2017-12-23T16:38:43.651Z,18.77
2017-12-23T16:41:11.118Z,19.30
2017-12-23T16:43:38.574Z,19.02
2017-12-23T16:46:06.817Z,20.10
2017-12-23T16:48:34.278Z,20.83
2017-12-23T16:51:01.756Z,20.88
2017-12-23T16:53:29.232Z,19.60
2017-12-23T16:55:57.462Z,19.30
2017-12-23T16:58:25.042Z,20.30
2017-12-23T17:00:52.560Z,20.60
2017-12-23T17:03:20.757Z,22.20
2017-12-23T17:05:48.244Z,21.27
2017-12-23T17:08:16.486Z,21.65
2017-12-23T17:10:43.986Z,22.15
2017-12-23T17:13:12.236Z,23.10
2017-12-23T17:15:39.804Z,22.30
2017-12-23T17:18:07.277Z,23.25
2017-12-23T17:20:36.793Z,22.10
2017-12-23T17:23:04.320Z,21.55
2017-12-23T17:25:33.306Z,22.70
2017-12-23T17:28:00.773Z,21.77
2017-12-23T17:30:31.939Z,21.83
2017-12-23T17:32:59.474Z,23.42
2017-12-23T17:35:27.048Z,23.27
2017-12-23T17:37:55.312Z,22.17
2017-12-23T17:40:22.774Z,24.45
2017-12-23T17:42:51.001Z,24.73
2017-12-23T17:45:19.279Z,24.30
2017-12-23T17:47:46.745Z,25.02
2017-12-23T17:50:14.209Z,26.00
2017-12-23T17:52:41.677Z,24.02
2017-12-23T17:55:09.236Z,25.40
2017-12-23T17:57:36.750Z,21.17
2017-12-23T18:00:04.250Z,23.05
2017-12-23T18:02:31.716Z,25.58
2017-12-23T18:04:59.265Z,20.65
2017-12-23T18:07:26.729Z,22.55
2017-12-23T18:09:54.286Z,21.58
2017-12-23T18:12:21.769Z,24.27
2017-12-23T18:14:49.998Z,21.27
2017-12-23T18:17:17.465Z,21.45
2017-12-23T18:19:44.985Z,21.98
2017-12-23T18:22:12.450Z,21.30
2017-12-23T18:24:39.922Z,20.27
2017-12-23T18:27:07.400Z,18.48
2017-12-23T18:29:34.962Z,20.17
2017-12-23T18:32:02.440Z,19.90
2017-12-23T18:34:30.674Z,18.85
2017-12-23T18:36:58.149Z,20.52
2017-12-23T18:39:25.717Z,18.60
2017-12-23T18:41:53.192Z,17.58
2017-12-23T18:44:21.426Z,19.67
2017-12-23T18:46:48.889Z,19.87
2017-12-23T18:49:16.389Z,19.50
2017-12-23T18:51:44.610Z,19.37
2017-12-23T18:54:12.077Z,19.52
2017-12-23T18:56:39.699Z,17.37
2017-12-23T18:59:07.165Z,17.67
2017-12-23T19:01:34.721Z,17.02
2017-12-23T19:04:02.188Z,15.20
2017-12-23T19:06:29.662Z,17.65
2017-12-23T19:08:57.146Z,13.65
2017-12-23T19:11:25.401Z,16.17
2017-12-23T19:13:52.878Z,17.27
2017-12-23T19:16:32.996Z,15.00
2017-12-23T19:19:00.461Z,16.50
2017-12-23T19:21:27.931Z,17.55
2017-12-23T19:23:55.442Z,18.20
2017-12-23T19:26:22.901Z,16.77
2017-12-23T19:28:50.406Z,17.15
2017-12-23T19:31:17.869Z,13.32
2017-12-23T19:33:46.105Z,14.75
2017-12-23T19:36:13.586Z,16.75
2017-12-23T19:38:41.173Z,16.08
2017-12-23T19:41:09.410Z,15.93
2017-12-23T19:43:37.010Z,10.43
2017-12-23T19:46:05.246Z,16.58
2017-12-23T19:48:32.705Z,16.42
2017-12-23T19:51:00.178Z,15.38
2017-12-23T19:53:27.646Z,14.60
2017-12-23T19:55:55.915Z,15.15
2017-12-23T19:58:24.161Z,14.60
2017-12-23T20:00:51.692Z,13.43
2017-12-23T20:03:19.145Z,15.75
2017-12-23T20:05:46.618Z,15.40
2017-12-23T20:08:14.112Z,13.38
2017-12-23T20:10:41.585Z,14.55
2017-12-23T20:13:09.822Z,14.77
2017-12-23T20:15:37.352Z,14.87
2017-12-23T20:18:04.856Z,13.50
2017-12-23T20:20:32.418Z,14.10
2017-12-23T20:22:59.925Z,12.10
2017-12-23T20:25:27.382Z,14.38
2017-12-23T20:27:54.892Z,14.85
2017-12-23T20:30:22.364Z,14.10
2017-12-23T20:32:50.603Z,12.45
2017-12-23T20:35:18.069Z,13.50
2017-12-23T20:37:45.637Z,14.40
2017-12-23T20:40:13.205Z,13.13
2017-12-23T20:42:41.473Z,12.60
2017-12-23T20:45:08.942Z,12.05
2017-12-23T20:47:37.214Z,13.60
2017-12-23T20:50:04.766Z,12.68
2017-12-23T20:52:32.325Z,12.82
2017-12-23T20:54:59.813Z,12.10
2017-12-23T20:57:27.278Z,13.43
2017-12-23T20:59:54.789Z,12.27
2017-12-23T21:02:22.357Z,10.88
2017-12-23T21:04:49.830Z,12.23
2017-12-23T21:07:18.139Z,11.68
2017-12-23T21:09:45.646Z,11.02
2017-12-23T21:12:13.133Z,11.77
2017-12-23T21:14:40.606Z,10.95
2017-12-23T21:17:08.121Z,11.15
2017-12-23T21:19:35.673Z,11.85
2017-12-23T21:22:03.230Z,11.95
2017-12-23T21:24:30.787Z,11.70
2017-12-23T21:26:58.347Z,10.23
2017-12-23T21:29:25.916Z,11.70
2017-12-23T21:31:53.382Z,10.85
2017-12-23T21:34:21.648Z,10.63
2017-12-23T21:36:49.205Z,11.98
2017-12-23T21:39:16.667Z,11.52
2017-12-23T21:41:44.138Z,11.70
2017-12-23T21:44:12.402Z,11.82
2017-12-23T21:46:40.642Z,11.50
2017-12-23T21:49:08.101Z,11.73
2017-12-23T21:51:35.687Z,11.60
2017-12-23T21:54:03.156Z,13.18
2017-12-23T21:56:31.421Z,11.63
2017-12-23T21:58:58.882Z,13.43
2017-12-23T22:01:26.346Z,11.10
2017-12-23T22:03:54.606Z,10.70
2017-12-23T22:06:22.161Z,11.45
2017-12-23T22:08:50.403Z,13.70
2017-12-23T22:11:17.881Z,13.38
2017-12-23T22:13:45.346Z,13.07
2017-12-23T22:16:12.805Z,13.15
2017-12-23T22:18:40.284Z,12.02
2017-12-23T22:21:08.533Z,14.15
2017-12-23T22:23:36.001Z,12.40
2017-12-23T22:26:03.470Z,12.15
2017-12-23T22:28:31.704Z,12.43
2017-12-23T22:30:59.174Z,13.10
2017-12-23T22:33:26.742Z,11.95
2017-12-23T22:35:54.301Z,12.10
2017-12-23T22:38:21.861Z,11.60
2017-12-23T22:40:49.331Z,12.70
2017-12-23T22:43:17.598Z,14.25
2017-12-23T22:45:45.154Z,14.07
2017-12-23T22:48:12.682Z,14.55
2017-12-23T22:50:40.115Z,13.98
2017-12-23T22:53:07.628Z,13.23
2017-12-23T22:55:35.173Z,13.25
2017-12-23T22:58:02.744Z,14.27
2017-12-23T23:00:30.205Z,15.18
2017-12-23T23:02:58.454Z,14.43
2017-12-23T23:05:25.916Z,15.00
2017-12-23T23:07:53.487Z,11.32
2017-12-23T23:10:20.960Z,14.82
2017-12-23T23:12:49.194Z,15.50
2017-12-23T23:15:16.662Z,15.05
2017-12-23T23:17:44.126Z,15.93
2017-12-23T23:20:11.594Z,16.83
2017-12-23T23:22:39.146Z,17.77
2017-12-23T23:25:06.696Z,15.60
2017-12-23T23:27:34.158Z,16.48
2017-12-23T23:30:01.718Z,15.65
2017-12-23T23:32:29.277Z,16.55
2017-12-23T23:34:56.751Z,16.20
2017-12-23T23:37:25.014Z,16.08
2017-12-23T23:39:52.477Z,16.90
2017-12-23T23:42:20.746Z,15.35
2017-12-23T23:44:48.217Z,17.25
2017-12-23T23:47:16.477Z,15.57
2017-12-23T23:49:44.034Z,18.45
2017-12-23T23:52:11.606Z,15.73
2017-12-23T23:54:39.070Z,15.95
2017-12-23T23:57:07.310Z,16.50
2017-12-23T23:59:34.885Z,18.17
